sensor_id;sensor_type;location;lat;lon;timestamp;temperature;humidity
47590;DHT22;33316;52.298;9.056;2024-01-16T00:01:42;2.50;99.90
47590;DHT22;33316;52.298;9.056;2024-01-16T00:04:09;2.50;99.90
47590;DHT22;33316;52.298;9.056;2024-01-16T00:06:38;2.50;99.90
47590;DHT22;33316;52.298;9.056;2024-01-16T00:09:07;2.50;99.90
47590;DHT22;33316;52.298;9.056;2024-01-16T00:11:34;2.50;99.90
47590;DHT22;33316;52.298;9.056;2024-01-16T00:14:06;2.40;99.90
47590;DHT22;33316;52.298;9.056;2024-01-16T00:16:33;2.50;99.90
47590;DHT22;33316;52.298;9.056;2024-01-16T00:19:00;2.50;99.90
47590;DHT22;33316;52.298;9.056;2024-01-16T00:21:26;2.40;99.90
47590;DHT22;33316;52.298;9.056;2024-01-16T00:23:53;2.40;99.90
47590;DHT22;33316;52.298;9.056;2024-01-16T00:26:22;2.50;99.90
47590;DHT22;33316;52.298;9.056;2024-01-16T00:28:49;2.40;99.90
47590;DHT22;33316;52.298;9.056;2024-01-16T00:31:16;2.40;99.90
47590;DHT22;33316;52.298;9.056;2024-01-16T00:33:43;2.40;99.90
47590;DHT22;33316;52.298;9.056;2024-01-16T00:36:10;2.40;99.90
47590;DHT22;33316;52.298;9.056;2024-01-16T00:38:37;2.40;99.90
47590;DHT22;33316;52.298;9.056;2024-01-16T00:41:04;2.40;99.90
47590;DHT22;33316;52.298;9.056;2024-01-16T00:43:33;2.40;99.90
47590;DHT22;33316;52.298;9.056;2024-01-16T00:46:01;2.40;99.90
47590;DHT22;33316;52.298;9.056;2024-01-16T00:48:28;2.40;99.90
47590;DHT22;33316;52.298;9.056;2024-01-16T00:50:55;2.30;99.90
47590;DHT22;33316;52.298;9.056;2024-01-16T00:53:22;2.40;99.90
47590;DHT22;33316;52.298;9.056;2024-01-16T00:55:50;2.40;99.90
47590;DHT22;33316;52.298;9.056;2024-01-16T00:58:17;2.40;99.90
47590;DHT22;33316;52.298;9.056;2024-01-16T01:00:46;2.40;99.90
47590;DHT22;33316;52.298;9.056;2024-01-16T01:03:13;2.40;99.90
47590;DHT22;33316;52.298;9.056;2024-01-16T01:05:39;2.40;99.90
47590;DHT22;33316;52.298;9.056;2024-01-16T01:08:06;2.40;99.90
47590;DHT22;33316;52.298;9.056;2024-01-16T01:10:34;2.40;99.90
47590;DHT22;33316;52.298;9.056;2024-01-16T01:13:01;2.40;99.90
47590;DHT22;33316;52.298;9.056;2024-01-16T01:15:28;2.40;99.90
47590;DHT22;33316;52.298;9.056;2024-01-16T01:17:56;2.40;99.90
47590;DHT22;33316;52.298;9.056;2024-01-16T01:20:23;2.40;99.90
47590;DHT22;33316;52.298;9.056;2024-01-16T01:22:50;2.30;99.90
47590;DHT22;33316;52.298;9.056;2024-01-16T01:25:17;2.30;99.90
47590;DHT22;33316;52.298;9.056;2024-01-16T01:27:44;2.30;99.90
47590;DHT22;33316;52.298;9.056;2024-01-16T01:30:11;2.30;99.90
47590;DHT22;33316;52.298;9.056;2024-01-16T01:32:38;2.30;99.90
47590;DHT22;33316;52.298;9.056;2024-01-16T01:35:07;2.30;99.90
47590;DHT22;33316;52.298;9.056;2024-01-16T01:37:34;2.30;99.90
47590;DHT22;33316;52.298;9.056;2024-01-16T01:40:01;2.30;99.90
47590;DHT22;33316;52.298;9.056;2024-01-16T01:42:28;2.30;99.90
47590;DHT22;33316;52.298;9.056;2024-01-16T01:44:55;2.30;99.90
47590;DHT22;33316;52.298;9.056;2024-01-16T01:47:22;2.20;99.90
47590;DHT22;33316;52.298;9.056;2024-01-16T01:49:49;2.20;99.90
47590;DHT22;33316;52.298;9.056;2024-01-16T01:52:17;2.20;99.90
47590;DHT22;33316;52.298;9.056;2024-01-16T01:54:45;2.20;99.90
47590;DHT22;33316;52.298;9.056;2024-01-16T01:57:12;2.20;99.90
47590;DHT22;33316;52.298;9.056;2024-01-16T01:59:39;2.10;99.90
47590;DHT22;33316;52.298;9.056;2024-01-16T02:02:05;2.10;99.90
47590;DHT22;33316;52.298;9.056;2024-01-16T02:04:33;2.10;99.90
47590;DHT22;33316;52.298;9.056;2024-01-16T02:07:00;2.10;99.90
47590;DHT22;33316;52.298;9.056;2024-01-16T02:09:29;2.10;99.90
47590;DHT22;33316;52.298;9.056;2024-01-16T02:11:55;2.20;99.90
47590;DHT22;33316;52.298;9.056;2024-01-16T02:14:22;2.10;99.90
47590;DHT22;33316;52.298;9.056;2024-01-16T02:16:49;2.10;99.90
47590;DHT22;33316;52.298;9.056;2024-01-16T02:19:16;2.10;99.90
47590;DHT22;33316;52.298;9.056;2024-01-16T02:21:47;2.10;99.90
47590;DHT22;33316;52.298;9.056;2024-01-16T02:24:16;2.10;99.90
47590;DHT22;33316;52.298;9.056;2024-01-16T02:26:44;2.10;99.90
47590;DHT22;33316;52.298;9.056;2024-01-16T02:29:11;2.10;99.90
47590;DHT22;33316;52.298;9.056;2024-01-16T02:31:37;2.10;99.90
47590;DHT22;33316;52.298;9.056;2024-01-16T02:34:04;2.10;99.90
47590;DHT22;33316;52.298;9.056;2024-01-16T02:36:31;2.20;99.90
47590;DHT22;33316;52.298;9.056;2024-01-16T02:39:00;2.10;99.90
47590;DHT22;33316;52.298;9.056;2024-01-16T02:41:28;2.10;99.90
47590;DHT22;33316;52.298;9.056;2024-01-16T02:43:55;2.10;99.90
47590;DHT22;33316;52.298;9.056;2024-01-16T02:46:22;2.10;99.90
47590;DHT22;33316;52.298;9.056;2024-01-16T02:48:49;2.10;99.90
47590;DHT22;33316;52.298;9.056;2024-01-16T02:51:15;2.10;99.90
47590;DHT22;33316;52.298;9.056;2024-01-16T02:53:42;2.10;99.90
47590;DHT22;33316;52.298;9.056;2024-01-16T02:56:09;2.10;99.90
47590;DHT22;33316;52.298;9.056;2024-01-16T02:58:37;2.10;99.90
47590;DHT22;33316;52.298;9.056;2024-01-16T03:01:04;2.10;99.90
47590;DHT22;33316;52.298;9.056;2024-01-16T03:03:31;2.10;99.90
47590;DHT22;33316;52.298;9.056;2024-01-16T03:05:58;2.10;99.90
47590;DHT22;33316;52.298;9.056;2024-01-16T03:08:25;2.10;99.90
47590;DHT22;33316;52.298;9.056;2024-01-16T03:10:52;2.10;99.90
47590;DHT22;33316;52.298;9.056;2024-01-16T03:13:20;2.10;99.90
47590;DHT22;33316;52.298;9.056;2024-01-16T03:15:48;2.10;99.90
47590;DHT22;33316;52.298;9.056;2024-01-16T03:18:16;2.10;99.90
47590;DHT22;33316;52.298;9.056;2024-01-16T03:20:43;2.10;99.90
47590;DHT22;33316;52.298;9.056;2024-01-16T03:23:10;2.20;99.90
47590;DHT22;33316;52.298;9.056;2024-01-16T03:25:36;2.10;99.90
47590;DHT22;33316;52.298;9.056;2024-01-16T03:28:04;2.10;99.90
47590;DHT22;33316;52.298;9.056;2024-01-16T03:30:33;2.10;99.90
47590;DHT22;33316;52.298;9.056;2024-01-16T03:33:02;2.10;99.90
47590;DHT22;33316;52.298;9.056;2024-01-16T03:35:29;2.10;99.90
47590;DHT22;33316;52.298;9.056;2024-01-16T03:37:56;2.10;99.90
47590;DHT22;33316;52.298;9.056;2024-01-16T03:40:25;2.10;99.90
47590;DHT22;33316;52.298;9.056;2024-01-16T03:42:52;2.10;99.90
47590;DHT22;33316;52.298;9.056;2024-01-16T03:45:20;2.10;99.90
47590;DHT22;33316;52.298;9.056;2024-01-16T03:47:46;2.10;99.90
47590;DHT22;33316;52.298;9.056;2024-01-16T03:50:16;2.10;99.90
47590;DHT22;33316;52.298;9.056;2024-01-16T03:52:43;2.00;99.90
47590;DHT22;33316;52.298;9.056;2024-01-16T03:55:10;2.00;99.90
47590;DHT22;33316;52.298;9.056;2024-01-16T03:57:37;2.00;99.90
47590;DHT22;33316;52.298;9.056;2024-01-16T04:00:07;2.00;99.90
47590;DHT22;33316;52.298;9.056;2024-01-16T04:02:37;2.00;99.90
47590;DHT22;33316;52.298;9.056;2024-01-16T04:05:05;2.00;99.90
47590;DHT22;33316;52.298;9.056;2024-01-16T04:07:33;2.00;99.90
47590;DHT22;33316;52.298;9.056;2024-01-16T04:10:00;2.00;99.90
47590;DHT22;33316;52.298;9.056;2024-01-16T04:12:28;2.00;99.90
47590;DHT22;33316;52.298;9.056;2024-01-16T04:14:55;2.00;99.90
47590;DHT22;33316;52.298;9.056;2024-01-16T04:17:21;2.00;99.90
47590;DHT22;33316;52.298;9.056;2024-01-16T04:19:48;2.00;99.90
47590;DHT22;33316;52.298;9.056;2024-01-16T04:22:15;2.00;99.90
47590;DHT22;33316;52.298;9.056;2024-01-16T04:24:43;2.00;99.90
47590;DHT22;33316;52.298;9.056;2024-01-16T04:27:11;2.00;99.90
47590;DHT22;33316;52.298;9.056;2024-01-16T04:29:38;2.00;99.90
47590;DHT22;33316;52.298;9.056;2024-01-16T04:32:05;2.00;99.90
47590;DHT22;33316;52.298;9.056;2024-01-16T04:34:32;2.00;99.90
47590;DHT22;33316;52.298;9.056;2024-01-16T04:37:00;2.00;99.90
47590;DHT22;33316;52.298;9.056;2024-01-16T04:39:29;2.00;99.90
47590;DHT22;33316;52.298;9.056;2024-01-16T04:41:57;2.00;99.90
47590;DHT22;33316;52.298;9.056;2024-01-16T04:44:24;2.00;99.90
47590;DHT22;33316;52.298;9.056;2024-01-16T04:46:50;2.00;99.90
47590;DHT22;33316;52.298;9.056;2024-01-16T04:49:18;2.00;99.90
47590;DHT22;33316;52.298;9.056;2024-01-16T04:51:45;2.00;99.90
47590;DHT22;33316;52.298;9.056;2024-01-16T04:54:12;2.00;99.90
47590;DHT22;33316;52.298;9.056;2024-01-16T04:56:39;2.00;99.90
47590;DHT22;33316;52.298;9.056;2024-01-16T04:59:07;2.00;99.90
47590;DHT22;33316;52.298;9.056;2024-01-16T05:01:34;2.00;99.90
47590;DHT22;33316;52.298;9.056;2024-01-16T05:04:01;2.00;99.90
47590;DHT22;33316;52.298;9.056;2024-01-16T05:06:29;2.00;99.90
47590;DHT22;33316;52.298;9.056;2024-01-16T05:08:56;2.00;99.90
47590;DHT22;33316;52.298;9.056;2024-01-16T05:11:23;2.00;99.90
47590;DHT22;33316;52.298;9.056;2024-01-16T05:13:49;2.00;99.90
47590;DHT22;33316;52.298;9.056;2024-01-16T05:16:24;2.00;99.90
47590;DHT22;33316;52.298;9.056;2024-01-16T05:18:50;2.00;99.90
47590;DHT22;33316;52.298;9.056;2024-01-16T05:21:17;2.00;99.90
47590;DHT22;33316;52.298;9.056;2024-01-16T05:23:44;2.00;99.90
47590;DHT22;33316;52.298;9.056;2024-01-16T05:26:11;1.90;99.90
47590;DHT22;33316;52.298;9.056;2024-01-16T05:28:38;2.00;99.90
47590;DHT22;33316;52.298;9.056;2024-01-16T05:31:06;2.00;99.90
47590;DHT22;33316;52.298;9.056;2024-01-16T05:33:34;2.00;99.90
47590;DHT22;33316;52.298;9.056;2024-01-16T05:36:01;2.00;99.90
47590;DHT22;33316;52.298;9.056;2024-01-16T05:38:28;2.00;99.90
47590;DHT22;33316;52.298;9.056;2024-01-16T05:40:55;2.00;99.90
47590;DHT22;33316;52.298;9.056;2024-01-16T05:43:21;2.00;99.90
47590;DHT22;33316;52.298;9.056;2024-01-16T05:45:48;2.00;99.90
47590;DHT22;33316;52.298;9.056;2024-01-16T05:48:15;2.00;99.90
47590;DHT22;33316;52.298;9.056;2024-01-16T05:50:43;2.00;99.90
47590;DHT22;33316;52.298;9.056;2024-01-16T05:53:10;2.00;99.90
47590;DHT22;33316;52.298;9.056;2024-01-16T05:55:37;2.00;99.90
47590;DHT22;33316;52.298;9.056;2024-01-16T05:58:04;2.00;99.90
47590;DHT22;33316;52.298;9.056;2024-01-16T06:00:31;2.00;99.90
47590;DHT22;33316;52.298;9.056;2024-01-16T06:02:59;2.00;99.90
47590;DHT22;33316;52.298;9.056;2024-01-16T06:05:26;2.00;99.90
47590;DHT22;33316;52.298;9.056;2024-01-16T06:07:54;2.00;99.90
47590;DHT22;33316;52.298;9.056;2024-01-16T06:10:20;2.00;99.90
47590;DHT22;33316;52.298;9.056;2024-01-16T06:12:47;2.00;99.90
47590;DHT22;33316;52.298;9.056;2024-01-16T06:15:14;2.00;99.90
47590;DHT22;33316;52.298;9.056;2024-01-16T06:17:41;2.00;99.90
47590;DHT22;33316;52.298;9.056;2024-01-16T06:20:09;2.00;99.90
47590;DHT22;33316;52.298;9.056;2024-01-16T06:22:36;1.90;99.90
47590;DHT22;33316;52.298;9.056;2024-01-16T06:25:05;2.00;99.90
47590;DHT22;33316;52.298;9.056;2024-01-16T06:27:31;1.90;99.90
47590;DHT22;33316;52.298;9.056;2024-01-16T06:29:58;1.90;99.90
47590;DHT22;33316;52.298;9.056;2024-01-16T06:32:25;1.90;99.90
47590;DHT22;33316;52.298;9.056;2024-01-16T06:34:52;1.90;99.90
47590;DHT22;33316;52.298;9.056;2024-01-16T06:37:19;1.90;99.90
47590;DHT22;33316;52.298;9.056;2024-01-16T06:39:46;1.90;99.90
47590;DHT22;33316;52.298;9.056;2024-01-16T06:42:15;1.90;99.90
47590;DHT22;33316;52.298;9.056;2024-01-16T06:44:41;1.90;99.90
47590;DHT22;33316;52.298;9.056;2024-01-16T06:47:08;1.90;99.90
47590;DHT22;33316;52.298;9.056;2024-01-16T06:49:35;1.90;99.90
47590;DHT22;33316;52.298;9.056;2024-01-16T06:52:02;1.80;99.90
47590;DHT22;33316;52.298;9.056;2024-01-16T06:54:29;1.90;99.90
47590;DHT22;33316;52.298;9.056;2024-01-16T06:56:56;1.90;99.90
47590;DHT22;33316;52.298;9.056;2024-01-16T06:59:24;1.80;99.90
47590;DHT22;33316;52.298;9.056;2024-01-16T07:01:51;1.80;99.90
47590;DHT22;33316;52.298;9.056;2024-01-16T07:04:20;1.80;99.90
47590;DHT22;33316;52.298;9.056;2024-01-16T07:06:47;1.80;99.90
47590;DHT22;33316;52.298;9.056;2024-01-16T07:09:15;1.80;99.90
47590;DHT22;33316;52.298;9.056;2024-01-16T07:11:43;1.80;99.90
47590;DHT22;33316;52.298;9.056;2024-01-16T07:14:10;1.80;99.90
47590;DHT22;33316;52.298;9.056;2024-01-16T07:16:38;1.80;99.90
47590;DHT22;33316;52.298;9.056;2024-01-16T07:19:05;1.80;99.90
47590;DHT22;33316;52.298;9.056;2024-01-16T07:21:32;1.80;99.90
47590;DHT22;33316;52.298;9.056;2024-01-16T07:23:59;1.80;99.90
47590;DHT22;33316;52.298;9.056;2024-01-16T07:26:26;1.80;99.90
47590;DHT22;33316;52.298;9.056;2024-01-16T07:28:53;1.80;99.90
47590;DHT22;33316;52.298;9.056;2024-01-16T07:31:19;1.80;99.90
47590;DHT22;33316;52.298;9.056;2024-01-16T07:33:48;1.80;99.90
47590;DHT22;33316;52.298;9.056;2024-01-16T07:36:14;1.80;99.90
47590;DHT22;33316;52.298;9.056;2024-01-16T07:38:41;1.80;99.90
47590;DHT22;33316;52.298;9.056;2024-01-16T07:41:09;1.80;99.90
47590;DHT22;33316;52.298;9.056;2024-01-16T07:43:35;1.80;99.90
47590;DHT22;33316;52.298;9.056;2024-01-16T07:46:02;1.80;99.90
47590;DHT22;33316;52.298;9.056;2024-01-16T07:48:29;1.70;99.90
47590;DHT22;33316;52.298;9.056;2024-01-16T07:50:57;1.80;99.90
47590;DHT22;33316;52.298;9.056;2024-01-16T07:53:24;1.70;99.90
47590;DHT22;33316;52.298;9.056;2024-01-16T07:55:53;1.80;99.90
47590;DHT22;33316;52.298;9.056;2024-01-16T07:58:20;1.80;99.90
47590;DHT22;33316;52.298;9.056;2024-01-16T08:00:47;1.70;99.90
47590;DHT22;33316;52.298;9.056;2024-01-16T08:03:14;1.70;99.90
47590;DHT22;33316;52.298;9.056;2024-01-16T08:05:41;1.80;99.90
47590;DHT22;33316;52.298;9.056;2024-01-16T08:08:09;1.80;99.90
47590;DHT22;33316;52.298;9.056;2024-01-16T08:10:36;1.80;99.90
47590;DHT22;33316;52.298;9.056;2024-01-16T08:13:03;1.80;99.90
47590;DHT22;33316;52.298;9.056;2024-01-16T08:15:30;1.80;99.90
47590;DHT22;33316;52.298;9.056;2024-01-16T08:17:56;1.80;99.90
47590;DHT22;33316;52.298;9.056;2024-01-16T08:20:23;1.80;99.90
47590;DHT22;33316;52.298;9.056;2024-01-16T08:22:50;1.80;99.90
47590;DHT22;33316;52.298;9.056;2024-01-16T08:25:18;1.80;99.90
47590;DHT22;33316;52.298;9.056;2024-01-16T08:27:45;1.80;99.90
47590;DHT22;33316;52.298;9.056;2024-01-16T08:30:12;1.80;99.90
47590;DHT22;33316;52.298;9.056;2024-01-16T08:32:39;1.80;99.90
47590;DHT22;33316;52.298;9.056;2024-01-16T08:35:06;1.80;99.90
47590;DHT22;33316;52.298;9.056;2024-01-16T08:37:34;1.80;99.90
47590;DHT22;33316;52.298;9.056;2024-01-16T08:40:01;1.90;99.90
47590;DHT22;33316;52.298;9.056;2024-01-16T08:42:31;1.90;99.90
47590;DHT22;33316;52.298;9.056;2024-01-16T08:44:58;1.90;99.90
47590;DHT22;33316;52.298;9.056;2024-01-16T08:47:25;1.90;99.90
47590;DHT22;33316;52.298;9.056;2024-01-16T08:49:51;1.90;99.90
47590;DHT22;33316;52.298;9.056;2024-01-16T08:52:18;1.90;99.90
47590;DHT22;33316;52.298;9.056;2024-01-16T08:54:45;2.00;99.90
47590;DHT22;33316;52.298;9.056;2024-01-16T08:57:12;1.90;99.90
47590;DHT22;33316;52.298;9.056;2024-01-16T08:59:40;2.00;99.90
47590;DHT22;33316;52.298;9.056;2024-01-16T09:02:07;2.00;99.90
47590;DHT22;33316;52.298;9.056;2024-01-16T09:04:34;2.00;99.90
47590;DHT22;33316;52.298;9.056;2024-01-16T09:07:01;2.00;99.90
47590;DHT22;33316;52.298;9.056;2024-01-16T09:09:30;2.00;99.90
47590;DHT22;33316;52.298;9.056;2024-01-16T09:11:56;2.00;99.90
47590;DHT22;33316;52.298;9.056;2024-01-16T09:14:24;2.00;99.90
47590;DHT22;33316;52.298;9.056;2024-01-16T09:16:53;2.00;99.90
47590;DHT22;33316;52.298;9.056;2024-01-16T09:19:20;2.10;99.90
47590;DHT22;33316;52.298;9.056;2024-01-16T09:21:47;2.10;99.90
47590;DHT22;33316;52.298;9.056;2024-01-16T09:24:14;2.10;99.90
47590;DHT22;33316;52.298;9.056;2024-01-16T09:26:41;2.10;99.90
47590;DHT22;33316;52.298;9.056;2024-01-16T09:29:09;2.20;99.90
47590;DHT22;33316;52.298;9.056;2024-01-16T09:31:36;2.20;99.90
47590;DHT22;33316;52.298;9.056;2024-01-16T09:34:05;2.20;99.90
47590;DHT22;33316;52.298;9.056;2024-01-16T09:36:32;2.20;99.90
47590;DHT22;33316;52.298;9.056;2024-01-16T09:39:01;2.20;99.90
47590;DHT22;33316;52.298;9.056;2024-01-16T09:41:28;2.30;99.90
47590;DHT22;33316;52.298;9.056;2024-01-16T09:43:58;2.30;99.90
47590;DHT22;33316;52.298;9.056;2024-01-16T09:46:26;2.30;99.90
47590;DHT22;33316;52.298;9.056;2024-01-16T09:48:54;2.30;99.90
47590;DHT22;33316;52.298;9.056;2024-01-16T09:51:23;2.40;99.90
47590;DHT22;33316;52.298;9.056;2024-01-16T09:53:50;2.40;99.90
47590;DHT22;33316;52.298;9.056;2024-01-16T09:56:19;2.50;99.90
47590;DHT22;33316;52.298;9.056;2024-01-16T09:58:49;2.50;99.90
47590;DHT22;33316;52.298;9.056;2024-01-16T10:01:16;2.60;99.90
47590;DHT22;33316;52.298;9.056;2024-01-16T10:03:44;2.60;99.90
47590;DHT22;33316;52.298;9.056;2024-01-16T10:06:12;2.60;99.90
47590;DHT22;33316;52.298;9.056;2024-01-16T10:08:41;2.70;99.90
47590;DHT22;33316;52.298;9.056;2024-01-16T10:11:08;2.70;99.90
47590;DHT22;33316;52.298;9.056;2024-01-16T10:13:36;2.80;99.90
47590;DHT22;33316;52.298;9.056;2024-01-16T10:16:04;2.80;99.90
47590;DHT22;33316;52.298;9.056;2024-01-16T10:18:30;2.90;99.90
47590;DHT22;33316;52.298;9.056;2024-01-16T10:20:57;2.90;99.90
47590;DHT22;33316;52.298;9.056;2024-01-16T10:23:25;2.90;99.90
47590;DHT22;33316;52.298;9.056;2024-01-16T10:26:06;2.90;99.90
47590;DHT22;33316;52.298;9.056;2024-01-16T10:28:33;2.90;99.90
47590;DHT22;33316;52.298;9.056;2024-01-16T10:31:04;2.90;99.90
47590;DHT22;33316;52.298;9.056;2024-01-16T10:33:31;3.00;99.90
47590;DHT22;33316;52.298;9.056;2024-01-16T10:36:08;3.00;99.90
47590;DHT22;33316;52.298;9.056;2024-01-16T10:38:37;3.10;99.90
47590;DHT22;33316;52.298;9.056;2024-01-16T10:41:08;3.10;99.90
47590;DHT22;33316;52.298;9.056;2024-01-16T10:43:35;3.10;99.90
47590;DHT22;33316;52.298;9.056;2024-01-16T10:46:10;3.10;99.90
47590;DHT22;33316;52.298;9.056;2024-01-16T10:48:38;3.10;99.90
47590;DHT22;33316;52.298;9.056;2024-01-16T10:51:06;3.10;99.90
47590;DHT22;33316;52.298;9.056;2024-01-16T10:53:34;3.10;99.90
47590;DHT22;33316;52.298;9.056;2024-01-16T10:56:02;3.10;99.90
47590;DHT22;33316;52.298;9.056;2024-01-16T10:58:31;3.20;99.90
47590;DHT22;33316;52.298;9.056;2024-01-16T11:01:02;3.20;99.90
47590;DHT22;33316;52.298;9.056;2024-01-16T11:03:38;3.20;99.90
47590;DHT22;33316;52.298;9.056;2024-01-16T11:06:06;3.20;99.90
47590;DHT22;33316;52.298;9.056;2024-01-16T11:08:36;3.20;99.90
47590;DHT22;33316;52.298;9.056;2024-01-16T11:11:04;3.30;99.90
47590;DHT22;33316;52.298;9.056;2024-01-16T11:13:33;3.20;99.90
47590;DHT22;33316;52.298;9.056;2024-01-16T11:16:01;3.20;99.90
47590;DHT22;33316;52.298;9.056;2024-01-16T11:18:30;3.30;99.90
47590;DHT22;33316;52.298;9.056;2024-01-16T11:20:58;3.20;99.90
47590;DHT22;33316;52.298;9.056;2024-01-16T11:23:26;3.20;99.90
47590;DHT22;33316;52.298;9.056;2024-01-16T11:25:53;3.20;99.90
47590;DHT22;33316;52.298;9.056;2024-01-16T11:28:20;3.20;99.90
47590;DHT22;33316;52.298;9.056;2024-01-16T11:30:48;3.20;99.90
47590;DHT22;33316;52.298;9.056;2024-01-16T11:33:42;3.20;99.90
47590;DHT22;33316;52.298;9.056;2024-01-16T11:39:11;3.20;99.90
47590;DHT22;33316;52.298;9.056;2024-01-16T11:41:51;3.30;99.90
47590;DHT22;33316;52.298;9.056;2024-01-16T11:44:52;3.20;99.90
47590;DHT22;33316;52.298;9.056;2024-01-16T11:47:22;3.20;99.90
47590;DHT22;33316;52.298;9.056;2024-01-16T11:49:51;3.20;99.90
47590;DHT22;33316;52.298;9.056;2024-01-16T11:52:39;3.10;99.90
47590;DHT22;33316;52.298;9.056;2024-01-16T11:55:25;3.20;99.90
47590;DHT22;33316;52.298;9.056;2024-01-16T11:58:10;3.10;99.90
47590;DHT22;33316;52.298;9.056;2024-01-16T12:00:45;3.10;99.90
47590;DHT22;33316;52.298;9.056;2024-01-16T12:03:14;3.20;99.90
47590;DHT22;33316;52.298;9.056;2024-01-16T12:05:43;3.20;99.90
47590;DHT22;33316;52.298;9.056;2024-01-16T12:08:10;3.20;99.90
47590;DHT22;33316;52.298;9.056;2024-01-16T12:10:46;3.20;99.90
47590;DHT22;33316;52.298;9.056;2024-01-16T12:13:13;3.20;99.90
47590;DHT22;33316;52.298;9.056;2024-01-16T12:15:40;3.20;99.90
47590;DHT22;33316;52.298;9.056;2024-01-16T12:18:08;3.30;99.90
47590;DHT22;33316;52.298;9.056;2024-01-16T12:20:36;3.20;99.90
47590;DHT22;33316;52.298;9.056;2024-01-16T12:23:05;3.20;99.90
47590;DHT22;33316;52.298;9.056;2024-01-16T12:25:33;3.20;99.90
47590;DHT22;33316;52.298;9.056;2024-01-16T12:28:01;3.20;99.90
47590;DHT22;33316;52.298;9.056;2024-01-16T12:30:31;3.30;99.90
47590;DHT22;33316;52.298;9.056;2024-01-16T12:33:05;3.30;99.90
47590;DHT22;33316;52.298;9.056;2024-01-16T12:35:35;3.20;99.90
47590;DHT22;33316;52.298;9.056;2024-01-16T12:38:03;3.20;99.90
47590;DHT22;33316;52.298;9.056;2024-01-16T12:40:32;3.20;99.90
47590;DHT22;33316;52.298;9.056;2024-01-16T12:43:00;3.20;99.90
47590;DHT22;33316;52.298;9.056;2024-01-16T12:45:31;3.30;99.90
47590;DHT22;33316;52.298;9.056;2024-01-16T12:48:00;3.30;99.90
47590;DHT22;33316;52.298;9.056;2024-01-16T12:50:28;3.30;99.90
47590;DHT22;33316;52.298;9.056;2024-01-16T12:53:05;3.30;99.90
47590;DHT22;33316;52.298;9.056;2024-01-16T12:55:33;3.30;99.90
47590;DHT22;33316;52.298;9.056;2024-01-16T12:58:21;3.30;99.90
47590;DHT22;33316;52.298;9.056;2024-01-16T13:00:51;3.30;99.90
47590;DHT22;33316;52.298;9.056;2024-01-16T13:03:18;3.30;99.90
47590;DHT22;33316;52.298;9.056;2024-01-16T13:05:54;3.20;99.90
47590;DHT22;33316;52.298;9.056;2024-01-16T13:08:22;3.20;99.90
47590;DHT22;33316;52.298;9.056;2024-01-16T13:11:02;3.20;99.90
47590;DHT22;33316;52.298;9.056;2024-01-16T13:13:30;3.20;99.90
47590;DHT22;33316;52.298;9.056;2024-01-16T13:15:57;3.30;99.90
47590;DHT22;33316;52.298;9.056;2024-01-16T13:18:26;3.20;99.90
47590;DHT22;33316;52.298;9.056;2024-01-16T13:20:54;3.20;99.90
47590;DHT22;33316;52.298;9.056;2024-01-16T13:23:24;3.20;99.90
47590;DHT22;33316;52.298;9.056;2024-01-16T13:26:05;3.20;99.90
47590;DHT22;33316;52.298;9.056;2024-01-16T13:28:36;3.20;99.90
47590;DHT22;33316;52.298;9.056;2024-01-16T13:31:03;3.20;99.90
47590;DHT22;33316;52.298;9.056;2024-01-16T13:33:31;3.20;99.90
47590;DHT22;33316;52.298;9.056;2024-01-16T13:35:59;3.20;99.90
47590;DHT22;33316;52.298;9.056;2024-01-16T13:38:28;3.20;99.90
47590;DHT22;33316;52.298;9.056;2024-01-16T13:40:57;3.20;99.90
47590;DHT22;33316;52.298;9.056;2024-01-16T13:43:23;3.20;99.90
47590;DHT22;33316;52.298;9.056;2024-01-16T13:45:50;3.20;99.90
47590;DHT22;33316;52.298;9.056;2024-01-16T13:48:19;3.20;99.90
47590;DHT22;33316;52.298;9.056;2024-01-16T13:50:46;3.10;99.90
47590;DHT22;33316;52.298;9.056;2024-01-16T13:53:14;3.10;99.90
47590;DHT22;33316;52.298;9.056;2024-01-16T13:55:44;3.10;99.90
47590;DHT22;33316;52.298;9.056;2024-01-16T13:58:11;3.10;99.90
47590;DHT22;33316;52.298;9.056;2024-01-16T14:00:38;3.10;99.90
47590;DHT22;33316;52.298;9.056;2024-01-16T14:03:06;3.10;99.90
47590;DHT22;33316;52.298;9.056;2024-01-16T14:05:33;3.10;99.90
47590;DHT22;33316;52.298;9.056;2024-01-16T14:08:02;3.10;99.90
47590;DHT22;33316;52.298;9.056;2024-01-16T14:10:29;3.10;99.90
47590;DHT22;33316;52.298;9.056;2024-01-16T14:12:59;3.10;99.90
47590;DHT22;33316;52.298;9.056;2024-01-16T14:15:26;3.10;99.90
47590;DHT22;33316;52.298;9.056;2024-01-16T14:17:55;3.10;99.90
47590;DHT22;33316;52.298;9.056;2024-01-16T14:20:24;3.10;99.90
47590;DHT22;33316;52.298;9.056;2024-01-16T14:22:52;3.10;99.90
47590;DHT22;33316;52.298;9.056;2024-01-16T14:25:20;3.10;99.90
47590;DHT22;33316;52.298;9.056;2024-01-16T14:27:55;3.00;99.90
47590;DHT22;33316;52.298;9.056;2024-01-16T14:30:24;3.00;99.90
47590;DHT22;33316;52.298;9.056;2024-01-16T14:32:51;3.00;99.90
47590;DHT22;33316;52.298;9.056;2024-01-16T14:35:18;3.00;99.90
47590;DHT22;33316;52.298;9.056;2024-01-16T14:37:46;3.00;99.90
47590;DHT22;33316;52.298;9.056;2024-01-16T14:40:13;3.00;99.90
47590;DHT22;33316;52.298;9.056;2024-01-16T14:42:46;2.90;99.90
47590;DHT22;33316;52.298;9.056;2024-01-16T14:45:16;2.90;99.90
47590;DHT22;33316;52.298;9.056;2024-01-16T14:47:52;2.90;99.90
47590;DHT22;33316;52.298;9.056;2024-01-16T14:50:20;2.90;99.90
47590;DHT22;33316;52.298;9.056;2024-01-16T14:52:48;2.90;99.90
47590;DHT22;33316;52.298;9.056;2024-01-16T14:55:15;2.90;99.90
47590;DHT22;33316;52.298;9.056;2024-01-16T14:57:42;2.90;99.90
47590;DHT22;33316;52.298;9.056;2024-01-16T15:00:13;2.90;99.90
47590;DHT22;33316;52.298;9.056;2024-01-16T15:02:41;2.90;99.90
47590;DHT22;33316;52.298;9.056;2024-01-16T15:05:17;2.90;99.90
47590;DHT22;33316;52.298;9.056;2024-01-16T15:07:45;2.90;99.90
47590;DHT22;33316;52.298;9.056;2024-01-16T15:10:12;2.90;99.90
47590;DHT22;33316;52.298;9.056;2024-01-16T15:12:42;2.80;99.90
47590;DHT22;33316;52.298;9.056;2024-01-16T15:15:12;2.80;99.90
47590;DHT22;33316;52.298;9.056;2024-01-16T15:17:39;2.80;99.90
47590;DHT22;33316;52.298;9.056;2024-01-16T15:20:07;2.80;99.90
47590;DHT22;33316;52.298;9.056;2024-01-16T15:22:39;2.80;99.90
47590;DHT22;33316;52.298;9.056;2024-01-16T15:25:07;2.80;99.90
47590;DHT22;33316;52.298;9.056;2024-01-16T15:27:35;2.70;99.90
47590;DHT22;33316;52.298;9.056;2024-01-16T15:30:02;2.70;99.90
47590;DHT22;33316;52.298;9.056;2024-01-16T15:32:29;2.70;99.90
47590;DHT22;33316;52.298;9.056;2024-01-16T15:34:56;2.70;99.90
47590;DHT22;33316;52.298;9.056;2024-01-16T15:37:23;2.70;99.90
47590;DHT22;33316;52.298;9.056;2024-01-16T15:39:53;2.60;99.90
47590;DHT22;33316;52.298;9.056;2024-01-16T15:42:20;2.60;99.90
47590;DHT22;33316;52.298;9.056;2024-01-16T15:44:47;2.60;99.90
47590;DHT22;33316;52.298;9.056;2024-01-16T15:47:14;2.60;99.90
47590;DHT22;33316;52.298;9.056;2024-01-16T15:49:41;2.60;99.90
47590;DHT22;33316;52.298;9.056;2024-01-16T15:52:08;2.50;99.90
47590;DHT22;33316;52.298;9.056;2024-01-16T15:54:35;2.50;99.90